createdAt,value
2023-03-10T00:01:25.594Z,4.27
2023-03-10T00:03:56.290Z,4.10
2023-03-10T00:06:28.127Z,4.23
2023-03-10T00:08:56.366Z,4.60
2023-03-10T00:11:24.288Z,4.20
2023-03-10T00:13:52.184Z,4.47
2023-03-10T00:16:27.490Z,4.07
2023-03-10T00:18:55.634Z,3.90
2023-03-10T00:21:30.011Z,8.00
2023-03-10T00:23:58.808Z,8.43
2023-03-10T00:26:30.350Z,9.13
2023-03-10T00:28:58.036Z,6.80
2023-03-10T00:31:31.317Z,7.00
2023-03-10T00:33:59.723Z,9.67
2023-03-10T00:36:29.899Z,9.83
2023-03-10T00:39:00.860Z,14.27
2023-03-10T00:41:36.477Z,12.00
2023-03-10T00:44:04.669Z,9.17
2023-03-10T00:46:34.356Z,8.73
2023-03-10T00:49:02.001Z,8.97
2023-03-10T00:51:29.724Z,7.03
2023-03-10T00:53:57.230Z,6.07
2023-03-10T00:56:26.846Z,6.03
2023-03-10T00:59:00.219Z,6.00
2023-03-10T01:01:30.933Z,5.83
2023-03-10T01:04:05.448Z,5.53
2023-03-10T01:06:36.710Z,5.97
2023-03-10T01:09:06.175Z,5.83
2023-03-10T01:11:35.538Z,5.80
2023-03-10T01:14:06.163Z,4.83
2023-03-10T01:16:33.956Z,5.10
2023-03-10T01:19:01.961Z,4.13
2023-03-10T01:21:35.741Z,3.77
2023-03-10T01:24:05.198Z,3.83
2023-03-10T01:26:32.828Z,3.40
2023-03-10T01:29:00.509Z,3.80
2023-03-10T01:31:28.332Z,3.87
2023-03-10T01:33:57.125Z,4.20
2023-03-10T01:36:28.434Z,3.63
2023-03-10T01:38:57.658Z,3.67
2023-03-10T01:41:25.835Z,4.20
2023-03-10T01:43:56.515Z,4.30
2023-03-10T01:46:41.559Z,4.03
2023-03-10T01:49:45.170Z,4.27
2023-03-10T01:52:22.223Z,4.57
2023-03-10T01:55:12.563Z,4.40
2023-03-10T01:57:52.656Z,3.93
2023-03-10T02:00:21.807Z,5.10
2023-03-10T02:02:54.583Z,5.90
2023-03-10T02:05:22.930Z,6.17
2023-03-10T02:07:51.579Z,6.13
2023-03-10T02:10:21.938Z,6.30
2023-03-10T02:12:52.763Z,5.27
2023-03-10T02:15:21.210Z,4.97
2023-03-10T02:17:51.869Z,5.40
2023-03-10T02:20:22.261Z,5.60
2023-03-10T02:22:50.961Z,4.90
2023-03-10T02:25:39.026Z,5.77
2023-03-10T02:28:06.893Z,6.30
2023-03-10T02:30:54.199Z,4.80
2023-03-10T02:33:30.418Z,6.30
2023-03-10T02:36:18.296Z,5.43
2023-03-10T02:38:46.494Z,3.90
2023-03-10T02:41:37.154Z,3.43
2023-03-10T02:44:12.079Z,3.03
2023-03-10T02:46:39.703Z,3.97
2023-03-10T02:49:10.857Z,4.97
2023-03-10T02:51:47.821Z,6.63
2023-03-10T02:54:18.153Z,10.13
2023-03-10T02:56:45.973Z,10.20
2023-03-10T02:59:16.358Z,10.23
2023-03-10T03:01:48.712Z,9.43
2023-03-10T03:04:18.904Z,8.03
2023-03-10T03:06:48.790Z,7.57
2023-03-10T03:09:16.472Z,7.20
2023-03-10T03:11:46.094Z,6.77
2023-03-10T03:14:14.213Z,7.63
2023-03-10T03:16:41.779Z,5.17
2023-03-10T03:19:11.420Z,6.20
2023-03-10T03:21:40.290Z,6.60
2023-03-10T03:24:08.053Z,4.80
2023-03-10T03:26:35.676Z,6.17
2023-03-10T03:29:12.139Z,5.73
2023-03-10T03:31:41.337Z,6.83
2023-03-10T03:34:16.754Z,6.10
2023-03-10T03:36:46.222Z,6.10
2023-03-10T03:39:17.687Z,5.07
2023-03-10T03:41:53.306Z,5.73
2023-03-10T03:44:21.677Z,5.23
2023-03-10T03:46:50.440Z,5.57
2023-03-10T03:49:18.569Z,6.03
2023-03-10T03:51:46.832Z,5.63
2023-03-10T03:54:14.421Z,6.37
2023-03-10T03:56:42.250Z,6.47
2023-03-10T03:59:12.022Z,6.47
2023-03-10T04:01:42.598Z,6.37
2023-03-10T04:04:10.169Z,6.20
2023-03-10T04:06:39.120Z,6.60
2023-03-10T04:09:10.521Z,6.53
2023-03-10T04:11:39.051Z,6.97
2023-03-10T04:14:06.786Z,7.10
2023-03-10T04:16:34.852Z,6.20
2023-03-10T04:19:07.638Z,8.37
2023-03-10T04:21:37.731Z,9.70
2023-03-10T04:24:06.092Z,8.87
2023-03-10T04:26:36.388Z,10.87
2023-03-10T04:29:05.292Z,11.20
2023-03-10T04:31:35.207Z,17.13
2023-03-10T04:34:03.919Z,16.33
2023-03-10T04:36:32.630Z,22.73
2023-03-10T04:39:02.525Z,19.60
2023-03-10T04:41:32.219Z,17.87
2023-03-10T04:43:59.923Z,11.83
2023-03-10T04:46:28.570Z,10.00
2023-03-10T04:48:57.336Z,7.30
2023-03-10T04:51:25.391Z,5.03
2023-03-10T04:53:55.195Z,3.77
2023-03-10T04:56:22.842Z,3.20
2023-03-10T04:58:50.355Z,7.83
2023-03-10T05:01:18.093Z,16.47
2023-03-10T05:03:50.072Z,14.80
2023-03-10T05:06:22.658Z,11.97
2023-03-10T05:09:01.022Z,5.90
2023-03-10T05:11:29.921Z,6.87
2023-03-10T05:13:57.641Z,10.03
2023-03-10T05:16:28.262Z,4.67
2023-03-10T05:18:55.824Z,3.40
2023-03-10T05:21:27.325Z,4.10
2023-03-10T05:23:56.808Z,3.77
2023-03-10T05:26:32.059Z,3.73
2023-03-10T05:29:01.073Z,4.33
2023-03-10T05:31:40.426Z,4.90
2023-03-10T05:34:14.220Z,4.50
2023-03-10T05:36:45.169Z,10.30
2023-03-10T05:39:13.262Z,5.80
2023-03-10T05:41:45.328Z,42.93
2023-03-10T05:44:13.189Z,26.10
2023-03-10T05:46:41.604Z,16.20
2023-03-10T05:49:09.225Z,17.87
2023-03-10T05:51:36.730Z,16.67
2023-03-10T05:54:06.364Z,13.70
2023-03-10T05:56:34.356Z,13.27
2023-03-10T05:59:04.043Z,8.73
2023-03-10T06:01:34.847Z,7.63
2023-03-10T06:04:02.420Z,8.47
2023-03-10T06:06:30.393Z,7.17
2023-03-10T06:08:58.576Z,7.40
2023-03-10T06:11:26.146Z,7.57
2023-03-10T06:13:54.016Z,9.07
2023-03-10T06:16:21.627Z,9.47
2023-03-10T06:18:54.649Z,9.90
2023-03-10T06:21:22.822Z,11.87
2023-03-10T06:23:50.447Z,11.60
2023-03-10T06:26:18.631Z,9.47
2023-03-10T06:28:47.533Z,9.20
2023-03-10T06:31:19.807Z,9.67
2023-03-10T06:33:47.816Z,8.77
2023-03-10T06:36:17.038Z,8.73
2023-03-10T06:38:45.276Z,9.43
2023-03-10T06:41:13.530Z,9.33
2023-03-10T06:43:41.263Z,9.20
2023-03-10T06:46:11.043Z,9.63
2023-03-10T06:48:40.963Z,10.73
2023-03-10T06:51:13.281Z,10.37
2023-03-10T06:53:40.943Z,7.97
2023-03-10T06:56:15.271Z,9.77
2023-03-10T06:58:43.166Z,13.70
2023-03-10T07:01:26.808Z,13.83
2023-03-10T07:03:55.212Z,15.97
2023-03-10T07:06:23.846Z,8.97
2023-03-10T07:08:52.830Z,5.17
2023-03-10T07:11:22.786Z,5.80
2023-03-10T07:13:50.631Z,6.40
2023-03-10T07:16:18.573Z,6.23
2023-03-10T07:18:46.246Z,5.20
2023-03-10T07:21:20.134Z,4.67
2023-03-10T07:23:48.375Z,8.90
2023-03-10T07:26:18.972Z,6.00
2023-03-10T07:28:47.485Z,3.10
2023-03-10T07:31:16.404Z,3.20
2023-03-10T07:33:44.231Z,3.10
2023-03-10T07:36:16.027Z,3.40
2023-03-10T07:38:43.887Z,3.87
2023-03-10T07:41:18.344Z,3.60
2023-03-10T07:43:46.924Z,3.70
2023-03-10T07:46:19.526Z,3.67
2023-03-10T07:48:47.656Z,3.70
2023-03-10T07:51:18.262Z,4.17
2023-03-10T07:53:46.157Z,6.93
2023-03-10T07:56:15.869Z,14.27
2023-03-10T07:58:43.703Z,12.83
2023-03-10T08:01:20.582Z,4.30
2023-03-10T08:03:48.840Z,4.47
2023-03-10T08:06:22.893Z,4.27
2023-03-10T08:08:51.799Z,3.77
2023-03-10T08:11:20.433Z,3.70
2023-03-10T08:13:49.094Z,4.47
2023-03-10T08:16:20.442Z,4.10
2023-03-10T08:18:49.329Z,4.13
2023-03-10T08:21:17.148Z,4.97
2023-03-10T08:23:44.794Z,3.67
2023-03-10T08:26:18.243Z,3.80
2023-03-10T08:28:46.205Z,4.20
2023-03-10T08:31:20.817Z,8.83
2023-03-10T08:33:49.463Z,7.70
2023-03-10T08:36:23.172Z,6.50
2023-03-10T08:38:52.839Z,4.10
2023-03-10T08:41:31.099Z,4.00
2023-03-10T08:44:00.090Z,5.00
2023-03-10T08:46:30.674Z,3.80
2023-03-10T08:48:59.208Z,4.23
2023-03-10T08:51:28.395Z,3.93
2023-03-10T08:53:56.570Z,3.60
2023-03-10T08:56:27.865Z,3.30
2023-03-10T08:59:00.800Z,3.50
2023-03-10T09:01:32.653Z,3.60
2023-03-10T09:04:01.411Z,3.77
2023-03-10T09:06:29.762Z,2.97
2023-03-10T09:09:01.618Z,3.30
2023-03-10T09:11:32.864Z,3.07
2023-03-10T09:14:02.030Z,3.47
2023-03-10T09:16:30.527Z,3.10
2023-03-10T09:19:00.230Z,3.30
2023-03-10T09:21:33.244Z,3.90
2023-03-10T09:24:02.596Z,3.87
2023-03-10T09:26:30.529Z,3.07
2023-03-10T09:28:58.168Z,3.57
2023-03-10T09:31:33.026Z,2.93
2023-03-10T09:34:01.613Z,3.40
2023-03-10T09:36:30.156Z,3.10
2023-03-10T09:38:59.266Z,2.87
2023-03-10T09:41:48.825Z,2.43
2023-03-10T09:44:26.576Z,1.63
2023-03-10T09:47:21.952Z,1.80
2023-03-10T09:49:58.694Z,1.83
2023-03-10T09:52:52.843Z,2.20
2023-03-10T09:55:31.382Z,1.87
2023-03-10T09:57:59.362Z,1.80
2023-03-10T10:00:42.003Z,1.90
2023-03-10T10:03:23.881Z,1.67
2023-03-10T10:05:54.257Z,1.60
2023-03-10T10:08:29.325Z,1.77
2023-03-10T10:11:00.284Z,2.10
2023-03-10T10:13:31.101Z,2.07
2023-03-10T10:16:24.396Z,2.10
2023-03-10T10:19:05.598Z,2.17
2023-03-10T10:21:43.733Z,2.27
2023-03-10T10:24:11.827Z,2.63
2023-03-10T10:26:39.469Z,18.27
2023-03-10T10:29:30.619Z,2.70
2023-03-10T10:32:12.527Z,2.60
2023-03-10T10:34:45.745Z,4.63
2023-03-10T10:37:37.211Z,2.00
2023-03-10T10:40:26.540Z,2.00
2023-03-10T10:42:57.202Z,2.20
2023-03-10T10:45:37.489Z,1.63
2023-03-10T10:48:06.229Z,1.90
2023-03-10T10:50:36.694Z,1.63
2023-03-10T10:53:26.689Z,1.70
2023-03-10T10:56:07.083Z,1.50
2023-03-10T10:58:38.672Z,1.67
2023-03-10T11:01:09.376Z,1.70
2023-03-10T11:03:51.376Z,1.40
2023-03-10T11:06:29.752Z,1.50
2023-03-10T11:09:15.802Z,1.83
2023-03-10T11:12:14.721Z,1.57
2023-03-10T11:15:07.035Z,1.80
2023-03-10T11:17:43.330Z,1.70
2023-03-10T11:20:29.104Z,1.70
2023-03-10T11:23:21.102Z,1.70
2023-03-10T11:26:09.580Z,1.80
2023-03-10T11:29:05.148Z,1.43
2023-03-10T11:32:00.202Z,1.80
2023-03-10T11:34:35.978Z,1.50
2023-03-10T11:37:30.125Z,1.50
2023-03-10T11:40:31.742Z,1.63
2023-03-10T11:43:19.073Z,2.53
2023-03-10T11:45:54.966Z,1.73
2023-03-10T11:48:43.646Z,1.67
2023-03-10T11:51:42.731Z,1.73
2023-03-10T11:54:33.352Z,1.77
2023-03-10T11:57:06.654Z,1.70
2023-03-10T11:59:37.265Z,1.80
2023-03-10T12:02:12.819Z,1.40
2023-03-10T12:05:02.516Z,2.13
2023-03-10T12:07:39.565Z,1.40
2023-03-10T12:10:12.967Z,1.60
2023-03-10T12:12:46.738Z,2.03
2023-03-10T12:15:22.667Z,1.60
2023-03-10T12:17:56.422Z,1.87
2023-03-10T12:20:30.845Z,1.50
2023-03-10T12:23:11.058Z,1.70
2023-03-10T12:25:38.655Z,1.67
2023-03-10T12:28:25.156Z,1.80
2023-03-10T12:31:38.012Z,2.07
2023-03-10T12:34:28.046Z,1.88
2023-03-10T12:37:22.923Z,1.70
2023-03-10T12:39:51.181Z,1.80
2023-03-10T12:42:39.778Z,2.40
2023-03-10T12:45:30.621Z,2.03
2023-03-10T12:48:11.990Z,2.03
2023-03-10T12:50:54.036Z,2.90
2023-03-10T12:54:21.387Z,1.90
2023-03-10T12:57:09.353Z,1.93
2023-03-10T12:59:51.749Z,2.03
2023-03-10T13:02:49.797Z,1.80
2023-03-10T13:05:33.087Z,1.80
2023-03-10T13:08:13.947Z,1.90
2023-03-10T13:10:43.258Z,2.00
2023-03-10T13:13:19.061Z,1.73
2023-03-10T13:16:00.721Z,1.90
2023-03-10T13:18:49.314Z,1.97
2023-03-10T13:21:35.554Z,2.30
2023-03-10T13:24:20.447Z,2.70
2023-03-10T13:26:48.236Z,2.03
2023-03-10T13:29:21.146Z,1.83
2023-03-10T13:31:56.559Z,3.77
2023-03-10T13:34:28.432Z,4.27
2023-03-10T13:37:07.358Z,6.07
2023-03-10T13:39:35.115Z,8.73
2023-03-10T13:42:45.313Z,7.10
2023-03-10T13:45:25.802Z,4.63
2023-03-10T13:47:56.055Z,4.33
2023-03-10T13:50:28.528Z,5.37
2023-03-10T13:52:59.795Z,5.97
2023-03-10T13:55:33.220Z,10.23
2023-03-10T13:58:02.259Z,17.27
2023-03-10T14:00:54.795Z,59.97
2023-03-10T14:03:23.083Z,39.80
2023-03-10T14:05:51.328Z,114.43
2023-03-10T14:08:31.259Z,234.67
2023-03-10T14:11:39.678Z,278.10
2023-03-10T14:14:09.721Z,247.03
2023-03-10T14:17:04.336Z,241.93
2023-03-10T14:19:43.723Z,183.73
2023-03-10T14:22:38.168Z,126.70
2023-03-10T14:25:14.571Z,16.03
2023-03-10T14:28:04.114Z,7.97
2023-03-10T14:30:34.486Z,14.03
2023-03-10T14:33:02.701Z,24.13
2023-03-10T14:35:31.597Z,131.63
2023-03-10T14:37:59.220Z,78.57
2023-03-10T14:40:27.469Z,22.03
2023-03-10T14:43:19.747Z,7.87
2023-03-10T14:45:50.593Z,7.80
2023-03-10T14:48:22.074Z,16.00
2023-03-10T14:50:50.907Z,8.87
2023-03-10T14:53:24.069Z,11.30
2023-03-10T14:55:56.370Z,26.50
2023-03-10T14:58:34.852Z,77.63
2023-03-10T15:01:07.273Z,58.30
2023-03-10T15:03:36.157Z,28.30
2023-03-10T15:06:04.964Z,39.27
2023-03-10T15:08:32.832Z,32.73
2023-03-10T15:11:01.969Z,47.90
2023-03-10T15:13:31.400Z,13.50
2023-03-10T15:15:59.583Z,14.93
2023-03-10T15:18:28.194Z,14.17
2023-03-10T15:21:01.633Z,16.73
2023-03-10T15:23:31.502Z,20.87
2023-03-10T15:25:59.726Z,20.43
2023-03-10T15:28:28.049Z,17.20
2023-03-10T15:30:55.905Z,13.57
2023-03-10T15:33:24.318Z,22.67
2023-03-10T15:35:53.417Z,15.30
2023-03-10T15:38:21.289Z,26.50
2023-03-10T15:40:49.000Z,28.23
2023-03-10T15:43:16.549Z,33.80
2023-03-10T15:45:52.135Z,9.73
2023-03-10T15:48:19.854Z,8.20
2023-03-10T15:50:49.949Z,12.07
2023-03-10T15:53:17.691Z,81.97
2023-03-10T15:55:45.433Z,173.63
2023-03-10T15:58:13.942Z,170.47
2023-03-10T16:00:43.932Z,260.67
2023-03-10T16:03:18.063Z,107.97
2023-03-10T16:05:49.463Z,220.20
2023-03-10T16:08:19.300Z,51.07
2023-03-10T16:10:55.595Z,53.27
2023-03-10T16:13:23.902Z,35.80
2023-03-10T16:15:52.803Z,14.10
2023-03-10T16:18:20.628Z,7.07
2023-03-10T16:20:58.709Z,7.37
2023-03-10T16:23:29.508Z,11.10
2023-03-10T16:26:16.780Z,12.57
2023-03-10T16:28:49.300Z,9.20
2023-03-10T16:31:20.090Z,7.60
2023-03-10T16:33:53.826Z,8.90
2023-03-10T16:36:26.296Z,11.67
2023-03-10T16:38:54.410Z,13.43
2023-03-10T16:41:23.308Z,13.07
2023-03-10T16:43:51.288Z,12.40
2023-03-10T16:46:25.615Z,12.87
2023-03-10T16:48:57.466Z,14.57
2023-03-10T16:51:38.036Z,23.87
2023-03-10T16:54:19.805Z,24.13
2023-03-10T16:56:51.625Z,12.33
2023-03-10T16:59:27.698Z,7.73
2023-03-10T17:01:58.491Z,7.80
2023-03-10T17:04:28.242Z,9.67
2023-03-10T17:06:58.392Z,12.77
2023-03-10T17:09:35.403Z,13.43
2023-03-10T17:12:05.959Z,16.23
2023-03-10T17:14:34.083Z,16.83
2023-03-10T17:17:02.742Z,15.10
2023-03-10T17:19:30.627Z,11.13
2023-03-10T17:22:01.689Z,8.90
2023-03-10T17:24:33.362Z,15.00
2023-03-10T17:27:03.530Z,31.73
2023-03-10T17:29:51.396Z,37.70
2023-03-10T17:32:22.037Z,45.23
2023-03-10T17:34:54.403Z,31.27
2023-03-10T17:37:23.015Z,28.70
2023-03-10T17:39:52.976Z,21.33
2023-03-10T17:42:22.534Z,14.27
2023-03-10T17:44:50.349Z,8.90
2023-03-10T17:47:24.607Z,7.40
2023-03-10T17:50:00.596Z,10.00
2023-03-10T17:52:35.624Z,17.83
2023-03-10T17:55:06.083Z,11.80
2023-03-10T17:57:36.512Z,12.87
2023-03-10T18:00:08.535Z,9.87
2023-03-10T18:02:41.690Z,8.03
2023-03-10T18:05:12.448Z,7.93
2023-03-10T18:07:41.547Z,11.30
2023-03-10T18:10:13.799Z,13.50
2023-03-10T18:12:46.293Z,13.70
2023-03-10T18:15:14.997Z,13.37
2023-03-10T18:17:42.918Z,17.57
2023-03-10T18:20:19.648Z,11.07
2023-03-10T18:22:53.980Z,10.73
2023-03-10T18:25:24.114Z,9.80
2023-03-10T18:27:51.796Z,9.10
2023-03-10T18:30:21.413Z,10.43
2023-03-10T18:32:54.885Z,7.57
2023-03-10T18:35:29.040Z,5.70
2023-03-10T18:37:59.884Z,4.60
2023-03-10T18:43:21.650Z,6.43
2023-03-10T18:45:51.073Z,8.27
2023-03-10T18:48:21.116Z,9.47
2023-03-10T18:50:51.844Z,8.10
2023-03-10T18:53:21.130Z,7.27
2023-03-10T18:55:49.614Z,6.83
2023-03-10T18:58:17.684Z,6.03
2023-03-10T19:00:51.972Z,6.37
2023-03-10T19:03:21.105Z,7.20
2023-03-10T19:05:57.290Z,6.43
2023-03-10T19:08:31.541Z,6.40
2023-03-10T19:11:26.682Z,5.37
2023-03-10T19:13:58.262Z,5.03
2023-03-10T19:16:26.923Z,5.70
2023-03-10T19:18:55.084Z,7.20
2023-03-10T19:21:23.290Z,6.90
2023-03-10T19:23:53.088Z,8.07
2023-03-10T19:26:21.948Z,8.40
2023-03-10T19:28:49.872Z,7.17
2023-03-10T19:31:21.336Z,7.37
2023-03-10T19:33:50.440Z,6.27
2023-03-10T19:36:18.118Z,5.40
2023-03-10T19:38:46.424Z,3.93
2023-03-10T19:41:17.698Z,3.13
2023-03-10T19:43:48.987Z,5.40
2023-03-10T19:46:23.081Z,13.77
2023-03-10T19:48:51.262Z,27.47
2023-03-10T19:51:51.559Z,34.63
2023-03-10T19:54:22.655Z,34.07
2023-03-10T19:56:52.643Z,18.23
2023-03-10T19:59:24.720Z,9.50
2023-03-10T20:01:52.406Z,4.43
2023-03-10T20:04:21.645Z,2.67
2023-03-10T20:06:51.302Z,2.60
2023-03-10T20:09:20.462Z,2.60
2023-03-10T20:11:48.115Z,2.80
2023-03-10T20:14:15.777Z,2.77
2023-03-10T20:16:45.070Z,2.90
2023-03-10T20:19:19.825Z,2.33
2023-03-10T20:21:49.073Z,2.67
2023-03-10T20:24:17.913Z,3.00
2023-03-10T20:26:47.344Z,3.67
2023-03-10T20:29:15.454Z,3.10
2023-03-10T20:31:51.099Z,2.60
2023-03-10T20:34:22.159Z,2.63
2023-03-10T20:36:52.134Z,2.50
2023-03-10T20:39:20.204Z,2.73
2023-03-10T20:41:48.027Z,2.80
2023-03-10T20:44:17.759Z,2.20
2023-03-10T20:46:46.997Z,2.40
2023-03-10T20:49:17.224Z,2.10
2023-03-10T20:51:49.204Z,2.67
2023-03-10T20:54:18.294Z,2.97
2023-03-10T20:56:50.810Z,2.83
2023-03-10T20:59:19.047Z,3.07
2023-03-10T21:01:48.270Z,2.77
2023-03-10T21:04:20.371Z,2.40
2023-03-10T21:06:49.680Z,3.47
2023-03-10T21:09:19.460Z,3.03
2023-03-10T21:11:56.069Z,3.03
2023-03-10T21:14:26.216Z,3.30
2023-03-10T21:16:56.370Z,2.90
2023-03-10T21:19:33.106Z,2.57
2023-03-10T21:22:03.281Z,3.20
2023-03-10T21:24:33.038Z,3.20
2023-03-10T21:27:01.315Z,3.27
2023-03-10T21:29:30.565Z,3.37
2023-03-10T21:32:02.454Z,2.90
2023-03-10T21:34:33.182Z,3.03
2023-03-10T21:37:01.090Z,2.60
2023-03-10T21:39:28.670Z,2.73
2023-03-10T21:41:56.802Z,2.60
2023-03-10T21:44:24.305Z,3.17
2023-03-10T21:46:53.342Z,2.90
2023-03-10T21:49:22.064Z,2.77
2023-03-10T21:51:49.714Z,3.20
2023-03-10T21:54:17.254Z,3.57
2023-03-10T21:56:45.116Z,3.30
2023-03-10T21:59:14.003Z,2.90
2023-03-10T22:01:43.319Z,2.40
2023-03-10T22:04:14.421Z,2.80
2023-03-10T22:06:42.073Z,2.30
2023-03-10T22:09:11.042Z,2.50
2023-03-10T22:11:41.800Z,2.97
2023-03-10T22:14:11.186Z,2.70
2023-03-10T22:16:38.743Z,2.37
2023-03-10T22:19:06.315Z,2.40
2023-03-10T22:21:33.779Z,2.63
2023-03-10T22:24:03.299Z,2.63
2023-03-10T22:26:30.785Z,2.80
2023-03-10T22:29:00.781Z,2.23
2023-03-10T22:31:28.912Z,2.57
2023-03-10T22:33:56.400Z,2.40
2023-03-10T22:36:25.367Z,3.73
2023-03-10T22:38:53.239Z,2.93
2023-03-10T22:41:20.686Z,3.03
2023-03-10T22:43:48.309Z,2.70
2023-03-10T22:46:18.404Z,2.90
2023-03-10T22:48:45.959Z,2.70
2023-03-10T22:51:17.477Z,2.80
2023-03-10T22:53:47.101Z,2.60
2023-03-10T22:56:14.675Z,3.80
2023-03-10T22:58:42.416Z,4.73
2023-03-10T23:01:10.414Z,5.80
2023-03-10T23:03:37.857Z,3.90
2023-03-10T23:06:07.399Z,2.80
2023-03-10T23:08:37.580Z,3.37
2023-03-10T23:11:11.610Z,2.80
2023-03-10T23:13:39.670Z,3.10
2023-03-10T23:16:07.732Z,2.70
2023-03-10T23:18:35.419Z,2.97
2023-03-10T23:21:04.310Z,3.00
2023-03-10T23:23:32.059Z,2.90
2023-03-10T23:25:59.944Z,2.87
2023-03-10T23:28:27.746Z,3.73
2023-03-10T23:30:55.764Z,3.43
2023-03-10T23:33:25.111Z,2.90
2023-03-10T23:35:54.447Z,3.07
2023-03-10T23:38:24.880Z,3.23
2023-03-10T23:40:53.672Z,3.30
2023-03-10T23:43:21.137Z,3.33
2023-03-10T23:45:48.654Z,3.47
2023-03-10T23:48:19.351Z,3.00
2023-03-10T23:50:48.778Z,3.50
2023-03-10T23:53:20.783Z,3.50
2023-03-10T23:55:49.041Z,3.30
2023-03-10T23:58:19.380Z,3.13
